sensor_id;sensor_type;location;lat;lon;timestamp;P1;durP1;ratioP1;P2;durP2;ratioP2
36691;SDS011;22678;52.052;4.242;2024-02-28T00:02:05;6.17;;;3.60;;
36691;SDS011;22678;52.052;4.242;2024-02-28T00:04:30;3.33;;;1.80;;
36691;SDS011;22678;52.052;4.242;2024-02-28T00:06:56;5.90;;;3.53;;
36691;SDS011;22678;52.052;4.242;2024-02-28T00:09:21;4.03;;;1.63;;
36691;SDS011;22678;52.052;4.242;2024-02-28T00:11:47;8.03;;;1.83;;
36691;SDS011;22678;52.052;4.242;2024-02-28T00:14:12;7.40;;;2.37;;
36691;SDS011;22678;52.052;4.242;2024-02-28T00:16:41;6.83;;;1.93;;
36691;SDS011;22678;52.052;4.242;2024-02-28T00:19:08;3.63;;;2.07;;
36691;SDS011;22678;52.052;4.242;2024-02-28T00:21:33;3.43;;;2.47;;
36691;SDS011;22678;52.052;4.242;2024-02-28T00:23:59;8.67;;;2.50;;
36691;SDS011;22678;52.052;4.242;2024-02-28T00:26:24;4.60;;;1.33;;
36691;SDS011;22678;52.052;4.242;2024-02-28T00:28:50;5.20;;;1.73;;
36691;SDS011;22678;52.052;4.242;2024-02-28T00:31:15;5.27;;;1.77;;
36691;SDS011;22678;52.052;4.242;2024-02-28T00:33:40;5.30;;;2.67;;
36691;SDS011;22678;52.052;4.242;2024-02-28T00:36:06;6.07;;;1.90;;
36691;SDS011;22678;52.052;4.242;2024-02-28T00:38:31;7.57;;;1.77;;
36691;SDS011;22678;52.052;4.242;2024-02-28T00:40:57;3.57;;;1.67;;
36691;SDS011;22678;52.052;4.242;2024-02-28T00:43:22;8.57;;;3.13;;
36691;SDS011;22678;52.052;4.242;2024-02-28T00:45:47;4.03;;;1.70;;
36691;SDS011;22678;52.052;4.242;2024-02-28T00:48:13;5.70;;;2.83;;
36691;SDS011;22678;52.052;4.242;2024-02-28T00:50:39;8.33;;;3.53;;
36691;SDS011;22678;52.052;4.242;2024-02-28T00:53:04;7.70;;;2.53;;
36691;SDS011;22678;52.052;4.242;2024-02-28T00:55:29;5.27;;;2.03;;
36691;SDS011;22678;52.052;4.242;2024-02-28T00:57:54;2.60;;;1.23;;
36691;SDS011;22678;52.052;4.242;2024-02-28T01:00:20;5.87;;;1.63;;
36691;SDS011;22678;52.052;4.242;2024-02-28T01:02:45;5.40;;;1.60;;
36691;SDS011;22678;52.052;4.242;2024-02-28T01:05:11;2.60;;;1.27;;
36691;SDS011;22678;52.052;4.242;2024-02-28T01:07:36;4.27;;;1.30;;
36691;SDS011;22678;52.052;4.242;2024-02-28T01:10:02;5.13;;;1.63;;
36691;SDS011;22678;52.052;4.242;2024-02-28T01:12:28;3.07;;;1.57;;
36691;SDS011;22678;52.052;4.242;2024-02-28T01:14:53;3.13;;;1.33;;
36691;SDS011;22678;52.052;4.242;2024-02-28T01:17:19;3.50;;;1.37;;
36691;SDS011;22678;52.052;4.242;2024-02-28T01:19:44;6.37;;;1.67;;
36691;SDS011;22678;52.052;4.242;2024-02-28T01:22:09;7.50;;;1.67;;
36691;SDS011;22678;52.052;4.242;2024-02-28T01:24:35;5.87;;;1.27;;
36691;SDS011;22678;52.052;4.242;2024-02-28T01:27:01;4.60;;;1.33;;
36691;SDS011;22678;52.052;4.242;2024-02-28T01:29:27;2.20;;;0.90;;
36691;SDS011;22678;52.052;4.242;2024-02-28T01:31:53;6.00;;;1.70;;
36691;SDS011;22678;52.052;4.242;2024-02-28T01:34:18;5.83;;;1.53;;
36691;SDS011;22678;52.052;4.242;2024-02-28T01:36:43;6.83;;;1.70;;
36691;SDS011;22678;52.052;4.242;2024-02-28T01:39:09;4.50;;;1.40;;
36691;SDS011;22678;52.052;4.242;2024-02-28T01:41:34;3.20;;;1.73;;
36691;SDS011;22678;52.052;4.242;2024-02-28T01:43:59;4.10;;;1.50;;
36691;SDS011;22678;52.052;4.242;2024-02-28T01:46:25;7.63;;;1.87;;
36691;SDS011;22678;52.052;4.242;2024-02-28T01:48:55;4.10;;;1.37;;
36691;SDS011;22678;52.052;4.242;2024-02-28T01:51:22;6.50;;;2.23;;
36691;SDS011;22678;52.052;4.242;2024-02-28T01:53:49;22.20;;;2.70;;
36691;SDS011;22678;52.052;4.242;2024-02-28T01:56:17;5.13;;;2.10;;
36691;SDS011;22678;52.052;4.242;2024-02-28T01:58:47;7.30;;;2.10;;
36691;SDS011;22678;52.052;4.242;2024-02-28T02:01:14;9.80;;;3.30;;
36691;SDS011;22678;52.052;4.242;2024-02-28T02:03:40;5.73;;;2.27;;
36691;SDS011;22678;52.052;4.242;2024-02-28T02:06:06;9.77;;;2.40;;
36691;SDS011;22678;52.052;4.242;2024-02-28T02:08:32;8.37;;;2.30;;
36691;SDS011;22678;52.052;4.242;2024-02-28T02:10:57;15.67;;;3.63;;
36691;SDS011;22678;52.052;4.242;2024-02-28T02:13:23;5.27;;;2.30;;
36691;SDS011;22678;52.052;4.242;2024-02-28T02:15:48;5.33;;;2.33;;
36691;SDS011;22678;52.052;4.242;2024-02-28T02:18:14;6.57;;;2.77;;
36691;SDS011;22678;52.052;4.242;2024-02-28T02:20:41;11.63;;;4.53;;
36691;SDS011;22678;52.052;4.242;2024-02-28T02:23:09;7.30;;;4.20;;
36691;SDS011;22678;52.052;4.242;2024-02-28T02:25:35;12.43;;;4.80;;
36691;SDS011;22678;52.052;4.242;2024-02-28T02:28:11;10.47;;;7.27;;
36691;SDS011;22678;52.052;4.242;2024-02-28T02:30:37;10.67;;;5.07;;
36691;SDS011;22678;52.052;4.242;2024-02-28T02:33:04;9.33;;;4.53;;
36691;SDS011;22678;52.052;4.242;2024-02-28T02:35:30;14.60;;;4.20;;
36691;SDS011;22678;52.052;4.242;2024-02-28T02:37:55;8.70;;;4.37;;
36691;SDS011;22678;52.052;4.242;2024-02-28T02:40:21;7.63;;;3.63;;
36691;SDS011;22678;52.052;4.242;2024-02-28T02:42:46;10.10;;;6.10;;
36691;SDS011;22678;52.052;4.242;2024-02-28T02:45:11;8.37;;;4.27;;
36691;SDS011;22678;52.052;4.242;2024-02-28T02:47:37;11.37;;;6.60;;
36691;SDS011;22678;52.052;4.242;2024-02-28T02:50:02;8.37;;;4.93;;
36691;SDS011;22678;52.052;4.242;2024-02-28T02:52:28;13.40;;;4.70;;
36691;SDS011;22678;52.052;4.242;2024-02-28T02:54:53;12.10;;;6.60;;
36691;SDS011;22678;52.052;4.242;2024-02-28T02:57:18;13.97;;;5.30;;
36691;SDS011;22678;52.052;4.242;2024-02-28T02:59:44;11.60;;;4.33;;
36691;SDS011;22678;52.052;4.242;2024-02-28T03:02:09;13.37;;;4.43;;
36691;SDS011;22678;52.052;4.242;2024-02-28T03:04:34;14.27;;;5.23;;
36691;SDS011;22678;52.052;4.242;2024-02-28T03:07:00;10.37;;;5.33;;
36691;SDS011;22678;52.052;4.242;2024-02-28T03:09:25;8.40;;;5.13;;
36691;SDS011;22678;52.052;4.242;2024-02-28T03:11:50;13.27;;;5.50;;
36691;SDS011;22678;52.052;4.242;2024-02-28T03:14:16;14.47;;;4.97;;
36691;SDS011;22678;52.052;4.242;2024-02-28T03:16:42;11.77;;;6.10;;
36691;SDS011;22678;52.052;4.242;2024-02-28T03:19:07;12.87;;;4.30;;
36691;SDS011;22678;52.052;4.242;2024-02-28T03:21:34;14.23;;;4.47;;
36691;SDS011;22678;52.052;4.242;2024-02-28T03:24:00;13.33;;;5.00;;
36691;SDS011;22678;52.052;4.242;2024-02-28T03:26:25;15.63;;;4.57;;
36691;SDS011;22678;52.052;4.242;2024-02-28T03:28:51;8.23;;;4.40;;
36691;SDS011;22678;52.052;4.242;2024-02-28T03:31:16;12.57;;;4.47;;
36691;SDS011;22678;52.052;4.242;2024-02-28T03:33:41;7.93;;;4.30;;
36691;SDS011;22678;52.052;4.242;2024-02-28T03:36:07;15.47;;;4.53;;
36691;SDS011;22678;52.052;4.242;2024-02-28T03:38:32;10.40;;;4.83;;
36691;SDS011;22678;52.052;4.242;2024-02-28T03:40:57;13.57;;;4.87;;
36691;SDS011;22678;52.052;4.242;2024-02-28T03:43:23;8.90;;;4.00;;
36691;SDS011;22678;52.052;4.242;2024-02-28T03:45:48;11.30;;;5.07;;
36691;SDS011;22678;52.052;4.242;2024-02-28T03:48:15;9.67;;;4.67;;
36691;SDS011;22678;52.052;4.242;2024-02-28T03:50:40;10.63;;;4.30;;
36691;SDS011;22678;52.052;4.242;2024-02-28T03:53:06;17.77;;;4.37;;
36691;SDS011;22678;52.052;4.242;2024-02-28T03:55:31;16.30;;;5.20;;
36691;SDS011;22678;52.052;4.242;2024-02-28T03:57:56;15.83;;;5.53;;
36691;SDS011;22678;52.052;4.242;2024-02-28T04:00:22;13.57;;;5.93;;
36691;SDS011;22678;52.052;4.242;2024-02-28T04:02:47;11.47;;;6.07;;
36691;SDS011;22678;52.052;4.242;2024-02-28T04:05:13;10.43;;;5.90;;
36691;SDS011;22678;52.052;4.242;2024-02-28T04:07:38;12.93;;;6.07;;
36691;SDS011;22678;52.052;4.242;2024-02-28T04:10:03;15.67;;;7.33;;
36691;SDS011;22678;52.052;4.242;2024-02-28T04:12:30;17.03;;;7.20;;
36691;SDS011;22678;52.052;4.242;2024-02-28T04:14:55;13.63;;;6.67;;
36691;SDS011;22678;52.052;4.242;2024-02-28T04:17:21;14.93;;;7.90;;
36691;SDS011;22678;52.052;4.242;2024-02-28T04:19:46;13.00;;;6.87;;
36691;SDS011;22678;52.052;4.242;2024-02-28T04:22:11;17.57;;;9.13;;
36691;SDS011;22678;52.052;4.242;2024-02-28T04:24:37;13.97;;;8.17;;
36691;SDS011;22678;52.052;4.242;2024-02-28T04:27:02;18.90;;;8.27;;
36691;SDS011;22678;52.052;4.242;2024-02-28T04:29:30;15.13;;;9.37;;
36691;SDS011;22678;52.052;4.242;2024-02-28T04:31:55;17.03;;;9.13;;
36691;SDS011;22678;52.052;4.242;2024-02-28T04:34:21;14.43;;;8.87;;
36691;SDS011;22678;52.052;4.242;2024-02-28T04:36:46;22.23;;;8.00;;
36691;SDS011;22678;52.052;4.242;2024-02-28T04:39:11;17.63;;;8.70;;
36691;SDS011;22678;52.052;4.242;2024-02-28T04:41:37;18.50;;;9.47;;
36691;SDS011;22678;52.052;4.242;2024-02-28T04:44:02;37.30;;;10.03;;
36691;SDS011;22678;52.052;4.242;2024-02-28T04:46:27;16.63;;;8.67;;
36691;SDS011;22678;52.052;4.242;2024-02-28T04:48:53;16.13;;;8.23;;
36691;SDS011;22678;52.052;4.242;2024-02-28T04:51:18;16.20;;;7.07;;
36691;SDS011;22678;52.052;4.242;2024-02-28T04:53:43;18.53;;;8.23;;
36691;SDS011;22678;52.052;4.242;2024-02-28T04:56:09;14.37;;;8.10;;
36691;SDS011;22678;52.052;4.242;2024-02-28T04:58:35;21.37;;;10.20;;
36691;SDS011;22678;52.052;4.242;2024-02-28T05:01:01;15.13;;;8.30;;
36691;SDS011;22678;52.052;4.242;2024-02-28T05:03:27;18.00;;;8.10;;
36691;SDS011;22678;52.052;4.242;2024-02-28T05:05:52;14.73;;;9.13;;
36691;SDS011;22678;52.052;4.242;2024-02-28T05:08:19;19.57;;;8.10;;
36691;SDS011;22678;52.052;4.242;2024-02-28T05:10:45;22.50;;;9.37;;
36691;SDS011;22678;52.052;4.242;2024-02-28T05:13:10;17.50;;;9.07;;
36691;SDS011;22678;52.052;4.242;2024-02-28T05:15:36;18.07;;;8.47;;
36691;SDS011;22678;52.052;4.242;2024-02-28T05:18:01;23.00;;;9.37;;
36691;SDS011;22678;52.052;4.242;2024-02-28T05:20:27;27.70;;;11.93;;
36691;SDS011;22678;52.052;4.242;2024-02-28T05:22:52;22.70;;;9.70;;
36691;SDS011;22678;52.052;4.242;2024-02-28T05:25:18;19.00;;;9.23;;
36691;SDS011;22678;52.052;4.242;2024-02-28T05:27:43;19.60;;;8.70;;
36691;SDS011;22678;52.052;4.242;2024-02-28T05:30:09;16.53;;;10.40;;
36691;SDS011;22678;52.052;4.242;2024-02-28T05:32:34;15.63;;;9.07;;
36691;SDS011;22678;52.052;4.242;2024-02-28T05:35:00;16.17;;;8.63;;
36691;SDS011;22678;52.052;4.242;2024-02-28T05:37:25;21.33;;;9.70;;
36691;SDS011;22678;52.052;4.242;2024-02-28T05:39:50;20.00;;;8.77;;
36691;SDS011;22678;52.052;4.242;2024-02-28T05:42:16;20.23;;;10.10;;
36691;SDS011;22678;52.052;4.242;2024-02-28T05:44:46;26.90;;;11.33;;
36691;SDS011;22678;52.052;4.242;2024-02-28T05:47:15;19.20;;;9.87;;
36691;SDS011;22678;52.052;4.242;2024-02-28T05:49:41;21.03;;;9.53;;
36691;SDS011;22678;52.052;4.242;2024-02-28T05:52:06;16.17;;;10.13;;
36691;SDS011;22678;52.052;4.242;2024-02-28T05:54:32;21.33;;;10.70;;
36691;SDS011;22678;52.052;4.242;2024-02-28T05:56:59;23.77;;;10.50;;
36691;SDS011;22678;52.052;4.242;2024-02-28T05:59:25;18.40;;;7.87;;
36691;SDS011;22678;52.052;4.242;2024-02-28T06:01:50;19.07;;;10.67;;
36691;SDS011;22678;52.052;4.242;2024-02-28T06:04:15;17.10;;;9.63;;
36691;SDS011;22678;52.052;4.242;2024-02-28T06:06:41;16.27;;;8.80;;
36691;SDS011;22678;52.052;4.242;2024-02-28T06:09:07;23.03;;;11.53;;
36691;SDS011;22678;52.052;4.242;2024-02-28T06:11:32;17.13;;;10.00;;
36691;SDS011;22678;52.052;4.242;2024-02-28T06:13:58;19.67;;;9.00;;
36691;SDS011;22678;52.052;4.242;2024-02-28T06:16:23;33.57;;;12.93;;
36691;SDS011;22678;52.052;4.242;2024-02-28T06:18:49;13.67;;;8.50;;
36691;SDS011;22678;52.052;4.242;2024-02-28T06:21:14;20.17;;;8.67;;
36691;SDS011;22678;52.052;4.242;2024-02-28T06:23:40;30.13;;;11.20;;
36691;SDS011;22678;52.052;4.242;2024-02-28T06:26:05;13.33;;;8.67;;
36691;SDS011;22678;52.052;4.242;2024-02-28T06:28:31;23.50;;;11.63;;
36691;SDS011;22678;52.052;4.242;2024-02-28T06:30:57;18.20;;;10.40;;
36691;SDS011;22678;52.052;4.242;2024-02-28T06:33:22;18.77;;;9.47;;
36691;SDS011;22678;52.052;4.242;2024-02-28T06:35:48;17.63;;;10.47;;
36691;SDS011;22678;52.052;4.242;2024-02-28T06:38:13;18.40;;;11.50;;
36691;SDS011;22678;52.052;4.242;2024-02-28T06:40:38;21.07;;;11.33;;
36691;SDS011;22678;52.052;4.242;2024-02-28T06:43:04;16.13;;;8.77;;
36691;SDS011;22678;52.052;4.242;2024-02-28T06:45:30;19.77;;;10.00;;
36691;SDS011;22678;52.052;4.242;2024-02-28T06:47:55;19.23;;;9.77;;
36691;SDS011;22678;52.052;4.242;2024-02-28T06:50:21;19.93;;;9.50;;
36691;SDS011;22678;52.052;4.242;2024-02-28T06:52:46;20.57;;;10.93;;
36691;SDS011;22678;52.052;4.242;2024-02-28T06:55:11;19.37;;;9.77;;
36691;SDS011;22678;52.052;4.242;2024-02-28T06:57:40;19.17;;;10.53;;
36691;SDS011;22678;52.052;4.242;2024-02-28T07:00:07;17.53;;;10.53;;
36691;SDS011;22678;52.052;4.242;2024-02-28T07:02:34;22.67;;;10.90;;
36691;SDS011;22678;52.052;4.242;2024-02-28T07:05:00;18.70;;;10.90;;
36691;SDS011;22678;52.052;4.242;2024-02-28T07:07:26;18.37;;;9.90;;
36691;SDS011;22678;52.052;4.242;2024-02-28T07:09:51;17.90;;;9.10;;
36691;SDS011;22678;52.052;4.242;2024-02-28T07:12:17;22.33;;;11.83;;
36691;SDS011;22678;52.052;4.242;2024-02-28T07:14:42;24.70;;;13.90;;
36691;SDS011;22678;52.052;4.242;2024-02-28T07:17:07;20.83;;;11.17;;
36691;SDS011;22678;52.052;4.242;2024-02-28T07:19:33;19.83;;;9.80;;
36691;SDS011;22678;52.052;4.242;2024-02-28T07:21:58;21.03;;;10.90;;
36691;SDS011;22678;52.052;4.242;2024-02-28T07:24:23;24.10;;;11.27;;
36691;SDS011;22678;52.052;4.242;2024-02-28T07:26:49;16.90;;;10.50;;
36691;SDS011;22678;52.052;4.242;2024-02-28T07:29:16;29.30;;;12.83;;
36691;SDS011;22678;52.052;4.242;2024-02-28T07:31:41;16.67;;;10.07;;
36691;SDS011;22678;52.052;4.242;2024-02-28T07:34:06;21.17;;;10.13;;
36691;SDS011;22678;52.052;4.242;2024-02-28T07:36:33;18.53;;;11.37;;
36691;SDS011;22678;52.052;4.242;2024-02-28T07:38:59;25.07;;;10.77;;
36691;SDS011;22678;52.052;4.242;2024-02-28T07:41:24;22.10;;;11.60;;
36691;SDS011;22678;52.052;4.242;2024-02-28T07:43:49;25.03;;;11.60;;
36691;SDS011;22678;52.052;4.242;2024-02-28T07:46:15;30.63;;;12.87;;
36691;SDS011;22678;52.052;4.242;2024-02-28T07:48:40;19.17;;;11.40;;
36691;SDS011;22678;52.052;4.242;2024-02-28T07:51:08;23.87;;;12.30;;
36691;SDS011;22678;52.052;4.242;2024-02-28T07:53:34;26.77;;;11.97;;
36691;SDS011;22678;52.052;4.242;2024-02-28T07:56:00;28.23;;;12.77;;
36691;SDS011;22678;52.052;4.242;2024-02-28T07:58:25;23.20;;;11.67;;
36691;SDS011;22678;52.052;4.242;2024-02-28T08:00:51;25.13;;;12.53;;
36691;SDS011;22678;52.052;4.242;2024-02-28T08:03:17;22.17;;;11.63;;
36691;SDS011;22678;52.052;4.242;2024-02-28T08:05:43;25.67;;;11.80;;
36691;SDS011;22678;52.052;4.242;2024-02-28T08:08:09;20.10;;;11.20;;
36691;SDS011;22678;52.052;4.242;2024-02-28T08:10:36;28.67;;;13.20;;
36691;SDS011;22678;52.052;4.242;2024-02-28T08:13:02;21.00;;;12.83;;
36691;SDS011;22678;52.052;4.242;2024-02-28T08:15:28;24.77;;;12.23;;
36691;SDS011;22678;52.052;4.242;2024-02-28T08:17:53;30.20;;;13.77;;
36691;SDS011;22678;52.052;4.242;2024-02-28T08:20:19;24.03;;;11.40;;
36691;SDS011;22678;52.052;4.242;2024-02-28T08:22:44;51.17;;;13.93;;
36691;SDS011;22678;52.052;4.242;2024-02-28T08:25:11;19.67;;;11.70;;
36691;SDS011;22678;52.052;4.242;2024-02-28T08:27:37;20.70;;;12.77;;
36691;SDS011;22678;52.052;4.242;2024-02-28T08:30:03;26.70;;;12.17;;
36691;SDS011;22678;52.052;4.242;2024-02-28T08:32:28;27.70;;;11.63;;
36691;SDS011;22678;52.052;4.242;2024-02-28T08:34:54;28.03;;;14.00;;
36691;SDS011;22678;52.052;4.242;2024-02-28T08:37:20;18.33;;;10.80;;
36691;SDS011;22678;52.052;4.242;2024-02-28T08:39:45;19.20;;;12.03;;
36691;SDS011;22678;52.052;4.242;2024-02-28T08:42:10;21.87;;;12.73;;
36691;SDS011;22678;52.052;4.242;2024-02-28T08:44:36;25.00;;;11.90;;
36691;SDS011;22678;52.052;4.242;2024-02-28T08:47:02;18.43;;;11.27;;
36691;SDS011;22678;52.052;4.242;2024-02-28T08:49:27;18.20;;;12.43;;
36691;SDS011;22678;52.052;4.242;2024-02-28T08:51:53;20.23;;;11.70;;
36691;SDS011;22678;52.052;4.242;2024-02-28T08:54:18;26.33;;;12.50;;
36691;SDS011;22678;52.052;4.242;2024-02-28T08:56:43;25.43;;;12.20;;
36691;SDS011;22678;52.052;4.242;2024-02-28T08:59:08;21.17;;;10.60;;
36691;SDS011;22678;52.052;4.242;2024-02-28T09:01:34;24.17;;;14.03;;
36691;SDS011;22678;52.052;4.242;2024-02-28T09:04:00;20.60;;;10.97;;
36691;SDS011;22678;52.052;4.242;2024-02-28T09:06:26;16.57;;;9.87;;
36691;SDS011;22678;52.052;4.242;2024-02-28T09:08:52;23.40;;;12.93;;
36691;SDS011;22678;52.052;4.242;2024-02-28T09:11:17;22.23;;;14.23;;
36691;SDS011;22678;52.052;4.242;2024-02-28T09:13:42;26.50;;;12.93;;
36691;SDS011;22678;52.052;4.242;2024-02-28T09:16:08;20.43;;;11.40;;
36691;SDS011;22678;52.052;4.242;2024-02-28T09:18:33;28.90;;;11.90;;
36691;SDS011;22678;52.052;4.242;2024-02-28T09:20:59;19.73;;;12.63;;
36691;SDS011;22678;52.052;4.242;2024-02-28T09:23:24;18.57;;;12.07;;
36691;SDS011;22678;52.052;4.242;2024-02-28T09:25:49;24.73;;;13.20;;
36691;SDS011;22678;52.052;4.242;2024-02-28T09:28:15;22.50;;;12.43;;
36691;SDS011;22678;52.052;4.242;2024-02-28T09:30:41;18.27;;;10.40;;
36691;SDS011;22678;52.052;4.242;2024-02-28T09:33:07;20.47;;;12.13;;
36691;SDS011;22678;52.052;4.242;2024-02-28T09:35:33;20.03;;;10.63;;
36691;SDS011;22678;52.052;4.242;2024-02-28T09:37:59;24.73;;;10.77;;
36691;SDS011;22678;52.052;4.242;2024-02-28T09:40:25;20.47;;;11.43;;
36691;SDS011;22678;52.052;4.242;2024-02-28T09:42:55;27.40;;;14.07;;
36691;SDS011;22678;52.052;4.242;2024-02-28T09:45:26;20.20;;;12.67;;
36691;SDS011;22678;52.052;4.242;2024-02-28T09:47:52;33.50;;;15.53;;
36691;SDS011;22678;52.052;4.242;2024-02-28T09:50:17;20.87;;;14.50;;
36691;SDS011;22678;52.052;4.242;2024-02-28T09:52:44;25.67;;;12.37;;
36691;SDS011;22678;52.052;4.242;2024-02-28T09:55:09;28.23;;;15.27;;
36691;SDS011;22678;52.052;4.242;2024-02-28T09:57:35;27.60;;;14.33;;
36691;SDS011;22678;52.052;4.242;2024-02-28T10:00:02;38.47;;;14.07;;
36691;SDS011;22678;52.052;4.242;2024-02-28T10:02:29;37.77;;;16.67;;
36691;SDS011;22678;52.052;4.242;2024-02-28T10:04:55;22.43;;;13.63;;
36691;SDS011;22678;52.052;4.242;2024-02-28T10:07:22;22.57;;;14.00;;
36691;SDS011;22678;52.052;4.242;2024-02-28T10:09:47;22.40;;;11.77;;
36691;SDS011;22678;52.052;4.242;2024-02-28T10:12:13;26.27;;;14.33;;
36691;SDS011;22678;52.052;4.242;2024-02-28T10:14:39;21.93;;;10.90;;
36691;SDS011;22678;52.052;4.242;2024-02-28T10:17:05;24.97;;;13.47;;
36691;SDS011;22678;52.052;4.242;2024-02-28T10:19:30;23.90;;;12.73;;
36691;SDS011;22678;52.052;4.242;2024-02-28T10:21:55;20.33;;;12.93;;
36691;SDS011;22678;52.052;4.242;2024-02-28T10:24:23;23.47;;;12.03;;
36691;SDS011;22678;52.052;4.242;2024-02-28T10:26:49;24.57;;;13.37;;
36691;SDS011;22678;52.052;4.242;2024-02-28T10:29:20;25.07;;;15.43;;
36691;SDS011;22678;52.052;4.242;2024-02-28T10:31:46;24.30;;;12.07;;
36691;SDS011;22678;52.052;4.242;2024-02-28T10:34:12;22.07;;;10.40;;
36691;SDS011;22678;52.052;4.242;2024-02-28T10:36:41;16.00;;;9.33;;
36691;SDS011;22678;52.052;4.242;2024-02-28T10:39:08;21.30;;;10.27;;
36691;SDS011;22678;52.052;4.242;2024-02-28T10:41:35;19.87;;;10.67;;
36691;SDS011;22678;52.052;4.242;2024-02-28T10:44:02;21.00;;;11.73;;
36691;SDS011;22678;52.052;4.242;2024-02-28T10:46:28;19.27;;;10.23;;
36691;SDS011;22678;52.052;4.242;2024-02-28T10:48:54;22.13;;;10.90;;
36691;SDS011;22678;52.052;4.242;2024-02-28T10:51:24;23.60;;;10.67;;
36691;SDS011;22678;52.052;4.242;2024-02-28T10:54:00;14.63;;;8.73;;
36691;SDS011;22678;52.052;4.242;2024-02-28T10:56:32;19.03;;;8.63;;
36691;SDS011;22678;52.052;4.242;2024-02-28T10:58:59;15.97;;;8.97;;
36691;SDS011;22678;52.052;4.242;2024-02-28T11:01:25;30.73;;;11.57;;
36691;SDS011;22678;52.052;4.242;2024-02-28T11:03:51;15.67;;;9.83;;
36691;SDS011;22678;52.052;4.242;2024-02-28T11:06:17;20.37;;;11.17;;
36691;SDS011;22678;52.052;4.242;2024-02-28T11:08:49;19.27;;;10.60;;
36691;SDS011;22678;52.052;4.242;2024-02-28T11:11:21;21.80;;;11.47;;
36691;SDS011;22678;52.052;4.242;2024-02-28T11:16:25;22.50;;;12.40;;
36691;SDS011;22678;52.052;4.242;2024-02-28T11:18:58;25.47;;;13.57;;
36691;SDS011;22678;52.052;4.242;2024-02-28T11:21:25;20.43;;;11.70;;
36691;SDS011;22678;52.052;4.242;2024-02-28T11:23:51;19.00;;;12.37;;
36691;SDS011;22678;52.052;4.242;2024-02-28T11:26:16;23.30;;;12.60;;
36691;SDS011;22678;52.052;4.242;2024-02-28T11:28:42;23.80;;;14.63;;
36691;SDS011;22678;52.052;4.242;2024-02-28T11:31:08;29.10;;;17.90;;
36691;SDS011;22678;52.052;4.242;2024-02-28T11:33:35;23.53;;;13.27;;
36691;SDS011;22678;52.052;4.242;2024-02-28T11:36:01;24.10;;;13.33;;
36691;SDS011;22678;52.052;4.242;2024-02-28T11:38:28;29.03;;;16.27;;
36691;SDS011;22678;52.052;4.242;2024-02-28T11:40:56;40.23;;;16.77;;
36691;SDS011;22678;52.052;4.242;2024-02-28T11:43:22;35.67;;;14.27;;
36691;SDS011;22678;52.052;4.242;2024-02-28T11:45:47;24.37;;;14.87;;
36691;SDS011;22678;52.052;4.242;2024-02-28T11:48:13;31.70;;;16.47;;
36691;SDS011;22678;52.052;4.242;2024-02-28T11:50:39;30.53;;;15.43;;
36691;SDS011;22678;52.052;4.242;2024-02-28T11:53:05;36.20;;;18.38;;
36691;SDS011;22678;52.052;4.242;2024-02-28T11:55:31;30.20;;;15.10;;
36691;SDS011;22678;52.052;4.242;2024-02-28T11:57:57;31.63;;;18.27;;
36691;SDS011;22678;52.052;4.242;2024-02-28T12:00:22;37.63;;;16.50;;
36691;SDS011;22678;52.052;4.242;2024-02-28T12:02:48;34.90;;;18.13;;
36691;SDS011;22678;52.052;4.242;2024-02-28T12:05:13;37.13;;;19.03;;
36691;SDS011;22678;52.052;4.242;2024-02-28T12:07:39;30.43;;;18.67;;
36691;SDS011;22678;52.052;4.242;2024-02-28T12:10:04;44.83;;;19.20;;
36691;SDS011;22678;52.052;4.242;2024-02-28T12:12:31;32.77;;;16.70;;
36691;SDS011;22678;52.052;4.242;2024-02-28T12:14:58;33.60;;;19.10;;
36691;SDS011;22678;52.052;4.242;2024-02-28T12:17:24;43.37;;;19.60;;
36691;SDS011;22678;52.052;4.242;2024-02-28T12:19:51;36.00;;;17.60;;
36691;SDS011;22678;52.052;4.242;2024-02-28T12:22:17;32.83;;;15.43;;
36691;SDS011;22678;52.052;4.242;2024-02-28T12:24:42;32.03;;;14.73;;
36691;SDS011;22678;52.052;4.242;2024-02-28T12:27:08;31.13;;;15.83;;
36691;SDS011;22678;52.052;4.242;2024-02-28T12:29:33;25.50;;;13.37;;
36691;SDS011;22678;52.052;4.242;2024-02-28T12:31:58;30.05;;;13.00;;
36691;SDS011;22678;52.052;4.242;2024-02-28T12:34:24;22.53;;;12.77;;
36691;SDS011;22678;52.052;4.242;2024-02-28T12:36:49;26.80;;;10.97;;
36691;SDS011;22678;52.052;4.242;2024-02-28T12:39:15;21.37;;;11.77;;
36691;SDS011;22678;52.052;4.242;2024-02-28T12:41:40;29.53;;;12.43;;
36691;SDS011;22678;52.052;4.242;2024-02-28T12:44:06;21.60;;;11.30;;
36691;SDS011;22678;52.052;4.242;2024-02-28T12:46:32;21.93;;;12.73;;
36691;SDS011;22678;52.052;4.242;2024-02-28T12:48:58;22.00;;;12.50;;
36691;SDS011;22678;52.052;4.242;2024-02-28T12:51:43;28.87;;;11.80;;
36691;SDS011;22678;52.052;4.242;2024-02-28T12:54:10;25.97;;;14.07;;
36691;SDS011;22678;52.052;4.242;2024-02-28T12:56:36;25.00;;;13.30;;
36691;SDS011;22678;52.052;4.242;2024-02-28T12:59:02;28.43;;;13.03;;
36691;SDS011;22678;52.052;4.242;2024-02-28T13:01:29;29.80;;;14.68;;
36691;SDS011;22678;52.052;4.242;2024-02-28T13:03:54;27.90;;;13.57;;
36691;SDS011;22678;52.052;4.242;2024-02-28T13:06:20;24.63;;;12.50;;
36691;SDS011;22678;52.052;4.242;2024-02-28T13:08:45;29.98;;;13.50;;
36691;SDS011;22678;52.052;4.242;2024-02-28T13:11:16;28.00;;;12.43;;
36691;SDS011;22678;52.052;4.242;2024-02-28T13:13:48;25.38;;;12.02;;
36691;SDS011;22678;52.052;4.242;2024-02-28T13:16:16;27.52;;;14.02;;
36691;SDS011;22678;52.052;4.242;2024-02-28T13:18:42;24.13;;;11.95;;
36691;SDS011;22678;52.052;4.242;2024-02-28T13:21:08;23.08;;;12.95;;
36691;SDS011;22678;52.052;4.242;2024-02-28T13:23:34;25.40;;;15.20;;
36691;SDS011;22678;52.052;4.242;2024-02-28T13:25:59;19.02;;;10.20;;
36691;SDS011;22678;52.052;4.242;2024-02-28T13:28:26;20.65;;;11.27;;
36691;SDS011;22678;52.052;4.242;2024-02-28T13:30:56;22.48;;;13.00;;
36691;SDS011;22678;52.052;4.242;2024-02-28T13:33:24;18.65;;;11.63;;
36691;SDS011;22678;52.052;4.242;2024-02-28T13:35:50;18.77;;;10.02;;
36691;SDS011;22678;52.052;4.242;2024-02-28T13:38:19;18.65;;;10.48;;
36691;SDS011;22678;52.052;4.242;2024-02-28T13:40:48;21.73;;;11.52;;
36691;SDS011;22678;52.052;4.242;2024-02-28T13:43:14;15.40;;;11.10;;
36691;SDS011;22678;52.052;4.242;2024-02-28T13:45:41;22.55;;;11.23;;
36691;SDS011;22678;52.052;4.242;2024-02-28T13:48:21;26.35;;;12.25;;
36691;SDS011;22678;52.052;4.242;2024-02-28T13:50:49;20.35;;;11.18;;
36691;SDS011;22678;52.052;4.242;2024-02-28T13:53:15;23.17;;;12.75;;
36691;SDS011;22678;52.052;4.242;2024-02-28T13:55:44;21.02;;;14.13;;
36691;SDS011;22678;52.052;4.242;2024-02-28T13:58:13;23.92;;;14.40;;
36691;SDS011;22678;52.052;4.242;2024-02-28T14:00:43;22.42;;;13.80;;
36691;SDS011;22678;52.052;4.242;2024-02-28T14:03:10;26.63;;;15.02;;
36691;SDS011;22678;52.052;4.242;2024-02-28T14:05:35;21.97;;;13.83;;
36691;SDS011;22678;52.052;4.242;2024-02-28T14:08:01;22.65;;;13.77;;
36691;SDS011;22678;52.052;4.242;2024-02-28T14:10:28;26.13;;;13.93;;
36691;SDS011;22678;52.052;4.242;2024-02-28T14:12:54;29.88;;;13.93;;
36691;SDS011;22678;52.052;4.242;2024-02-28T14:15:19;22.17;;;13.30;;
36691;SDS011;22678;52.052;4.242;2024-02-28T14:17:45;27.02;;;14.07;;
36691;SDS011;22678;52.052;4.242;2024-02-28T14:20:11;27.93;;;12.90;;
36691;SDS011;22678;52.052;4.242;2024-02-28T14:22:37;20.67;;;13.10;;
36691;SDS011;22678;52.052;4.242;2024-02-28T14:25:06;26.00;;;12.82;;
36691;SDS011;22678;52.052;4.242;2024-02-28T14:27:41;21.30;;;12.37;;